Time;durP1;ratioP1;P1;durP2;ratioP2;P2;SDS_P1;SDS_P2;PMS_P1;PMS_P2;Temp;Humidity;BMP_temperature;BMP_pressure;BME280_temperature;BME280_humidity;BME280_pressure;Samples;Min_cycle;Max_cycle;Signal;HPM_P1;HPM_P2
2023/03/20 00:00:50;;;;;;;8.73;3.40;;;12.20;74.60;;;;;;5028898;28;20396;-66
2023/03/20 00:03:16;;;;;;;5.37;2.83;;;12.20;74.30;;;;;;5029821;28;20411;-65
2023/03/20 00:05:42;;;;;;;6.65;3.65;;;12.20;74.30;;;;;;5024393;28;20338;-66
2023/03/20 00:08:08;;;;;;;7.60;3.45;;;12.20;74.40;;;;;;5029944;28;20396;-66
2023/03/20 00:10:43;;;;;;;5.30;3.20;;;12.20;74.40;;;;;;5027108;28;20072;-66
2023/03/20 00:13:24;;;;;;;6.72;3.30;;;12.10;74.50;;;;;;5033843;28;20041;-65
2023/03/20 00:15:50;;;;;;;5.63;2.90;;;12.10;74.60;;;;;;5028146;28;20060;-66
2023/03/20 00:18:19;;;;;;;5.78;2.97;;;12.00;74.70;;;;;;5027987;28;20037;-66
2023/03/20 00:20:53;;;;;;;7.53;3.65;;;12.10;74.70;;;;;;5033439;28;20443;-67
2023/03/20 00:23:19;;;;;;;9.05;3.72;;;12.00;74.60;;;;;;5011386;28;20029;-67
2023/03/20 00:25:46;;;;;;;7.70;3.42;;;12.00;74.70;;;;;;5030106;28;20037;-66
2023/03/20 00:28:50;;;;;;;4.97;3.40;;;11.90;74.80;;;;;;5030012;28;20037;-67
2023/03/20 00:31:26;;;;;;;5.57;3.13;;;11.90;75.10;;;;;;5008786;28;20065;-66
2023/03/20 00:33:56;;;;;;;7.47;3.22;;;11.80;75.40;;;;;;5031846;28;20428;-66
2023/03/20 00:36:23;;;;;;;4.68;2.97;;;11.70;75.70;;;;;;5025434;28;20053;-66
2023/03/20 00:38:49;;;;;;;7.38;3.15;;;11.60;75.90;;;;;;5025802;28;20092;-66
2023/03/20 00:41:25;;;;;;;4.82;2.75;;;11.70;76.00;;;;;;5026417;28;20860;-67
2023/03/20 00:43:56;;;;;;;9.73;3.55;;;11.70;75.80;;;;;;5025397;28;20106;-66
2023/03/20 00:46:22;;;;;;;5.57;2.67;;;11.80;75.70;;;;;;5026629;28;20397;-67
2023/03/20 00:48:48;;;;;;;7.55;4.03;;;11.80;75.60;;;;;;5028543;28;20109;-67
2023/03/20 00:51:14;;;;;;;6.82;2.47;;;11.80;75.70;;;;;;5030225;28;20052;-66
2023/03/20 00:53:40;;;;;;;6.00;3.22;;;11.70;75.70;;;;;;5012324;28;20536;-65
2023/03/20 00:56:20;;;;;;;5.90;3.10;;;11.70;75.80;;;;;;5003249;28;20128;-65
2023/03/20 00:58:47;;;;;;;5.57;3.42;;;11.70;75.90;;;;;;5030540;28;20582;-67
2023/03/20 01:01:13;;;;;;;7.75;3.25;;;11.70;75.90;;;;;;5007916;28;20033;-66
2023/03/20 01:03:39;;;;;;;6.75;3.83;;;11.70;75.90;;;;;;5028493;28;20132;-66
2023/03/20 01:06:05;;;;;;;6.95;3.63;;;11.60;75.90;;;;;;5007495;28;20026;-65
2023/03/20 01:08:30;;;;;;;7.85;3.85;;;11.60;75.90;;;;;;5010733;28;20531;-66
2023/03/20 01:10:57;;;;;;;6.75;3.53;;;11.60;75.90;;;;;;5013445;28;20029;-67
2023/03/20 01:13:26;;;;;;;5.63;3.72;;;11.60;76.00;;;;;;5032051;28;20048;-67
2023/03/20 01:15:54;;;;;;;2.83;2.13;;;11.50;75.80;;;;;;5028731;28;20034;-69
2023/03/20 01:18:22;;;;;;;6.95;3.65;;;11.60;75.80;;;;;;5008829;28;20500;-65
2023/03/20 01:20:49;;;;;;;5.70;3.60;;;11.60;75.60;;;;;;5024872;28;20117;-65
2023/03/20 01:23:15;;;;;;;5.03;3.10;;;11.70;75.60;;;;;;5026080;28;20148;-66
2023/03/20 01:25:41;;;;;;;5.57;3.55;;;11.70;75.40;;;;;;5007640;28;20433;-66
2023/03/20 01:28:17;;;;;;;5.43;3.17;;;11.70;75.50;;;;;;5025584;28;20045;-66
2023/03/20 01:30:43;;;;;;;8.15;4.50;;;11.70;75.40;;;;;;5020998;28;20120;-67
2023/03/20 01:33:25;;;;;;;9.38;4.82;;;11.70;75.60;;;;;;5011422;28;20056;-66
2023/03/20 01:35:51;;;;;;;7.85;4.95;;;11.60;75.80;;;;;;5027008;28;20140;-67
2023/03/20 01:38:22;;;;;;;8.63;5.15;;;11.50;75.90;;;;;;5014019;28;20160;-67
2023/03/20 01:41:02;;;;;;;9.67;4.47;;;11.60;76.20;;;;;;5008090;28;20436;-67
2023/03/20 01:43:28;;;;;;;11.77;5.47;;;11.50;76.40;;;;;;5007693;28;20075;-67
2023/03/20 01:46:03;;;;;;;6.40;3.00;;;11.40;76.70;;;;;;5010829;28;20417;-67
2023/03/20 01:48:56;;;;;;;5.40;3.22;;;11.40;76.80;;;;;;5013650;28;20056;-66
2023/03/20 01:51:27;;;;;;;6.85;3.28;;;11.40;76.60;;;;;;5012215;28;20437;-65
2023/03/20 01:54:11;;;;;;;11.10;4.75;;;11.40;76.60;;;;;;4996610;28;20030;-66
2023/03/20 01:57:07;;;;;;;7.97;3.42;;;11.50;76.40;;;;;;5001859;28;20077;-66
2023/03/20 01:59:42;;;;;;;10.82;4.30;;;11.40;76.30;;;;;;4998730;28;20544;-65
2023/03/20 02:02:09;;;;;;;7.25;2.75;;;11.40;76.40;;;;;;5014079;28;20056;-66
2023/03/20 02:04:42;;;;;;;4.90;2.80;;;11.40;76.40;;;;;;4999629;28;20018;-65
2023/03/20 02:07:09;;;;;;;7.85;4.18;;;11.40;76.20;;;;;;5015993;28;20029;-65
2023/03/20 02:09:36;;;;;;;5.60;2.42;;;11.50;76.10;;;;;;5010034;28;20084;-66
2023/03/20 02:12:02;;;;;;;5.75;3.63;;;11.40;75.80;;;;;;5006573;28;20076;-67
2023/03/20 02:14:30;;;;;;;6.57;3.45;;;11.50;75.80;;;;;;5018258;28;20065;-66
2023/03/20 02:16:56;;;;;;;8.88;3.40;;;11.50;75.80;;;;;;5008519;28;20396;-66
2023/03/20 02:19:34;;;;;;;6.85;2.85;;;11.50;75.70;;;;;;5010592;28;20046;-66
2023/03/20 02:22:24;;;;;;;6.95;3.25;;;11.50;75.60;;;;;;5008498;28;20117;-66
2023/03/20 02:25:14;;;;;;;6.75;2.92;;;11.30;75.60;;;;;;5013129;28;20026;-65
2023/03/20 02:28:10;;;;;;;4.65;2.22;;;11.30;75.70;;;;;;5006407;28;20022;-66
2023/03/20 02:30:56;;;;;;;3.85;2.47;;;11.30;75.50;;;;;;5004351;28;20066;-65
2023/03/20 02:33:40;;;;;;;3.47;2.35;;;11.20;75.30;;;;;;4998792;28;20029;-66
2023/03/20 02:36:26;;;;;;;4.22;2.42;;;11.20;74.90;;;;;;5018068;28;20054;-65
2023/03/20 02:39:10;;;;;;;6.45;2.78;;;11.20;74.90;;;;;;5031695;28;20079;-65
2023/03/20 02:41:40;;;;;;;3.10;2.15;;;11.20;74.40;;;;;;5023836;28;20475;-67
2023/03/20 02:44:44;;;;;;;2.03;1.27;;;11.20;74.20;;;;;;5027751;28;20361;-67
2023/03/20 02:47:22;;;;;;;5.50;2.20;;;11.30;73.90;;;;;;4992834;28;20038;-67
2023/03/20 02:50:03;;;;;;;5.97;2.10;;;11.20;73.20;;;;;;5032094;28;20416;-67
2023/03/20 02:52:40;;;;;;;3.00;1.67;;;11.20;72.70;;;;;;5033423;28;21595;-67
2023/03/20 02:55:32;;;;;;;3.78;1.63;;;11.20;72.80;;;;;;5032239;28;20427;-66
2023/03/20 02:58:21;;;;;;;4.13;1.48;;;11.20;72.10;;;;;;5021530;28;20045;-67
2023/03/20 03:01:02;;;;;;;5.90;1.88;;;11.10;71.90;;;;;;5029388;28;20021;-66
2023/03/20 03:03:33;;;;;;;2.65;1.17;;;11.10;71.70;;;;;;5026139;28;20025;-65
2023/03/20 03:06:04;;;;;;;3.72;1.13;;;11.10;71.80;;;;;;5025216;28;20033;-67
2023/03/20 03:08:36;;;;;;;4.43;1.52;;;11.10;71.30;;;;;;5025244;28;20017;-65
2023/03/20 03:11:05;;;;;;;6.60;1.10;;;11.10;71.00;;;;;;5020571;28;20457;-65
2023/03/20 03:13:36;;;;;;;1.40;1.00;;;11.10;70.70;;;;;;5030515;28;20032;-65
2023/03/20 03:16:13;;;;;;;1.73;0.90;;;11.20;70.60;;;;;;5037684;28;20052;-65
2023/03/20 03:18:41;;;;;;;5.68;1.50;;;11.10;70.20;;;;;;5030243;28;20048;-66
2023/03/20 03:21:09;;;;;;;2.03;1.35;;;11.10;70.30;;;;;;5029873;28;20060;-65
2023/03/20 03:23:42;;;;;;;2.05;0.98;;;11.10;70.50;;;;;;5014951;28;20039;-66
2023/03/20 03:26:31;;;;;;;4.65;1.17;;;11.00;70.60;;;;;;5028400;28;20076;-65
2023/03/20 03:29:03;;;;;;;2.20;1.30;;;11.00;70.80;;;;;;5029792;28;20104;-65
2023/03/20 03:31:31;;;;;;;5.00;1.85;;;11.00;71.00;;;;;;5030290;28;20037;-67
2023/03/20 03:33:58;;;;;;;1.83;1.15;;;11.00;71.10;;;;;;5022712;28;20045;-65
2023/03/20 03:36:43;;;;;;;1.65;1.05;;;11.00;71.10;;;;;;5025651;28;20072;-66
2023/03/20 03:39:27;;;;;;;1.92;1.38;;;11.10;71.10;;;;;;5026761;28;20049;-66
2023/03/20 03:41:56;;;;;;;4.70;1.42;;;11.10;71.30;;;;;;5030528;28;20477;-65
2023/03/20 03:44:31;;;;;;;1.80;1.17;;;11.10;71.30;;;;;;5025531;28;20034;-65
2023/03/20 03:47:11;;;;;;;3.58;1.50;;;11.10;71.30;;;;;;5024420;28;20025;-64
2023/03/20 03:49:43;;;;;;;3.13;1.42;;;11.10;71.30;;;;;;5030756;28;20088;-65
2023/03/20 03:52:17;;;;;;;3.38;1.50;;;11.10;71.40;;;;;;5032567;28;20052;-64
2023/03/20 03:54:48;;;;;;;2.95;1.80;;;11.00;71.40;;;;;;5026241;28;20029;-66
2023/03/20 03:57:20;;;;;;;7.18;1.90;;;11.00;71.70;;;;;;5028864;28;20487;-65
2023/03/20 03:59:49;;;;;;;5.28;1.80;;;11.00;71.80;;;;;;5027153;28;20430;-67
2023/03/20 04:02:18;;;;;;;2.25;1.50;;;10.90;71.80;;;;;;5024869;28;20030;-66
2023/03/20 04:04:48;;;;;;;7.20;2.22;;;11.00;72.00;;;;;;5029197;28;20032;-67
2023/03/20 04:07:14;;;;;;;3.35;1.60;;;10.90;72.00;;;;;;5031407;28;20025;-67
2023/03/20 04:09:40;;;;;;;4.35;2.25;;;10.80;72.20;;;;;;5020359;28;21472;-66
2023/03/20 04:12:24;;;;;;;3.35;1.80;;;10.80;72.60;;;;;;5029596;28;20040;-66
2023/03/20 04:14:50;;;;;;;2.88;1.73;;;10.70;72.70;;;;;;5024367;28;20159;-66
2023/03/20 04:17:16;;;;;;;4.00;1.92;;;10.70;73.00;;;;;;5028006;28;20117;-67
2023/03/20 04:19:41;;;;;;;7.07;2.67;;;10.70;73.00;;;;;;4979573;28;20488;-65
2023/03/20 04:22:07;;;;;;;7.53;2.65;;;10.60;73.00;;;;;;5032081;28;20042;-65
2023/03/20 04:24:33;;;;;;;3.85;2.17;;;10.60;73.20;;;;;;5021037;28;20025;-66
2023/03/20 04:26:58;;;;;;;4.07;2.40;;;10.60;73.20;;;;;;5028989;28;20057;-65
2023/03/20 04:29:25;;;;;;;3.83;2.25;;;10.60;73.10;;;;;;5011410;28;20175;-66
2023/03/20 04:31:50;;;;;;;3.60;2.50;;;10.60;73.00;;;;;;5037181;28;20032;-68
2023/03/20 04:34:16;;;;;;;9.10;2.53;;;10.60;73.00;;;;;;5017010;28;20477;-66
2023/03/20 04:36:42;;;;;;;4.05;2.40;;;10.60;73.00;;;;;;5012948;28;20135;-67
2023/03/20 04:39:08;;;;;;;5.70;3.40;;;10.60;73.10;;;;;;5018125;28;20034;-67
2023/03/20 04:41:34;;;;;;;5.60;3.05;;;10.60;73.20;;;;;;5027319;28;20029;-66
2023/03/20 04:44:00;;;;;;;8.75;3.47;;;10.60;73.20;;;;;;5021335;28;20029;-66
2023/03/20 04:46:25;;;;;;;11.50;4.25;;;10.60;73.20;;;;;;5028837;28;20030;-66
2023/03/20 04:48:51;;;;;;;7.38;3.63;;;10.50;73.40;;;;;;5023944;28;20030;-66
2023/03/20 04:51:16;;;;;;;9.23;4.63;;;10.50;73.50;;;;;;5014789;28;20100;-66
2023/03/20 04:53:42;;;;;;;7.25;4.28;;;10.50;73.60;;;;;;5022125;28;20041;-66
2023/03/20 04:56:10;;;;;;;7.47;4.85;;;10.50;73.50;;;;;;5029668;28;20473;-65
2023/03/20 04:58:36;;;;;;;8.25;3.80;;;10.50;73.70;;;;;;5008429;28;20061;-66
2023/03/20 05:01:02;;;;;;;8.02;4.32;;;10.40;73.70;;;;;;5032805;28;20064;-66
2023/03/20 05:03:27;;;;;;;8.80;4.30;;;10.40;73.60;;;;;;5024205;28;20040;-66
2023/03/20 05:05:53;;;;;;;9.50;4.50;;;10.50;73.60;;;;;;4993639;28;20432;-66
2023/03/20 05:08:19;;;;;;;9.18;3.95;;;10.50;73.50;;;;;;5031765;28;20080;-67
2023/03/20 05:10:45;;;;;;;9.43;4.95;;;10.50;73.40;;;;;;5031689;28;20065;-67
2023/03/20 05:13:10;;;;;;;8.32;4.20;;;10.50;73.40;;;;;;5032039;28;20034;-67
2023/03/20 05:15:36;;;;;;;7.25;3.95;;;10.50;73.50;;;;;;5028639;28;20040;-66
2023/03/20 05:18:02;;;;;;;10.77;3.83;;;10.40;73.60;;;;;;5025488;28;20033;-67
2023/03/20 05:20:28;;;;;;;7.93;4.45;;;10.40;73.70;;;;;;5030985;28;20029;-66
2023/03/20 05:22:54;;;;;;;10.05;4.55;;;10.30;73.70;;;;;;5007307;28;20026;-65
2023/03/20 05:25:19;;;;;;;6.70;3.97;;;10.30;73.90;;;;;;5032376;28;20558;-66
2023/03/20 05:27:45;;;;;;;8.60;5.05;;;10.20;74.00;;;;;;5044410;28;20029;-66
2023/03/20 05:30:13;;;;;;;9.48;4.10;;;10.20;74.10;;;;;;5011352;28;20099;-66
2023/03/20 05:32:39;;;;;;;8.52;4.18;;;10.30;74.00;;;;;;5029636;28;20060;-66
2023/03/20 05:35:05;;;;;;;7.35;3.63;;;10.30;73.80;;;;;;5028915;28;20511;-66
2023/03/20 05:37:31;;;;;;;5.93;3.33;;;10.40;73.70;;;;;;5017878;28;20473;-67
2023/03/20 05:39:57;;;;;;;9.98;3.38;;;10.40;73.50;;;;;;5020403;28;20041;-67
2023/03/20 05:42:22;;;;;;;6.55;3.08;;;10.40;73.40;;;;;;5011885;28;20042;-67
2023/03/20 05:44:48;;;;;;;8.68;3.80;;;10.40;73.40;;;;;;5032255;28;20109;-66
2023/03/20 05:47:14;;;;;;;8.40;3.85;;;10.30;73.30;;;;;;5034467;28;20034;-66
2023/03/20 05:49:39;;;;;;;9.43;4.47;;;10.30;74.10;;;;;;5031746;28;20081;-65
2023/03/20 05:52:05;;;;;;;14.23;4.38;;;10.20;73.50;;;;;;5031261;28;20041;-67
2023/03/20 05:54:31;;;;;;;5.32;3.53;;;10.20;73.60;;;;;;5028827;28;20045;-66
2023/03/20 05:56:56;;;;;;;4.07;3.05;;;10.20;73.70;;;;;;5025536;28;20083;-66
2023/03/20 05:59:22;;;;;;;6.35;3.50;;;10.10;73.70;;;;;;5010809;28;20073;-66
2023/03/20 06:01:47;;;;;;;5.95;3.70;;;10.20;73.60;;;;;;5030310;28;20033;-68
2023/03/20 06:04:13;;;;;;;6.10;3.30;;;10.20;73.50;;;;;;5022158;28;20037;-66
2023/03/20 06:06:40;;;;;;;5.20;2.97;;;10.20;73.50;;;;;;5015310;28;20022;-67
2023/03/20 06:09:06;;;;;;;4.45;2.80;;;10.10;73.60;;;;;;4999745;28;20037;-66
2023/03/20 06:11:31;;;;;;;8.10;3.47;;;10.10;73.60;;;;;;5020995;28;20026;-66
2023/03/20 06:13:58;;;;;;;5.53;2.65;;;10.20;73.50;;;;;;5032496;28;20052;-66
2023/03/20 06:16:24;;;;;;;6.32;3.70;;;10.20;73.40;;;;;;5030399;28;20134;-66
2023/03/20 06:18:49;;;;;;;10.80;3.83;;;10.20;73.40;;;;;;5011938;28;20112;-66
2023/03/20 06:21:15;;;;;;;4.50;2.47;;;10.20;73.40;;;;;;5017020;28;20060;-66
2023/03/20 06:23:41;;;;;;;4.25;2.90;;;10.20;73.40;;;;;;5029937;28;20037;-67
2023/03/20 06:26:07;;;;;;;4.32;2.70;;;10.30;73.20;;;;;;5027462;28;20456;-72
2023/03/20 06:28:33;;;;;;;3.78;2.63;;;10.30;73.10;;;;;;5033733;28;20021;-66
2023/03/20 06:30:58;;;;;;;6.38;2.65;;;10.30;72.90;;;;;;5011207;28;20120;-67
2023/03/20 06:33:24;;;;;;;5.70;2.67;;;10.40;72.90;;;;;;5019524;28;20396;-67
2023/03/20 06:35:50;;;;;;;5.80;3.13;;;10.30;72.70;;;;;;5034245;28;20054;-67
2023/03/20 06:38:15;;;;;;;7.13;2.70;;;10.30;72.70;;;;;;5020481;28;20029;-71
2023/03/20 06:40:42;;;;;;;5.70;2.63;;;10.30;72.70;;;;;;5024418;28;20392;-72
2023/03/20 06:43:08;;;;;;;3.63;2.63;;;10.30;72.80;;;;;;5033008;28;20026;-71
2023/03/20 06:45:33;;;;;;;5.05;2.53;;;10.30;72.90;;;;;;5030591;28;20120;-68
2023/03/20 06:47:59;;;;;;;7.57;3.60;;;10.30;72.90;;;;;;5013601;28;20108;-67
2023/03/20 06:50:26;;;;;;;5.35;2.47;;;10.30;72.90;;;;;;5029840;28;21839;-67
2023/03/20 06:52:51;;;;;;;9.70;3.83;;;10.40;72.80;;;;;;5027870;28;20465;-67
2023/03/20 06:55:17;;;;;;;4.22;2.80;;;10.50;72.70;;;;;;5024602;28;20104;-67
2023/03/20 06:57:44;;;;;;;8.55;3.08;;;10.50;72.70;;;;;;5030985;28;20083;-68
2023/03/20 07:00:10;;;;;;;5.55;3.42;;;10.40;72.60;;;;;;5038408;28;20041;-67
2023/03/20 07:02:36;;;;;;;5.85;2.67;;;10.40;72.70;;;;;;5033689;28;20096;-68
2023/03/20 07:05:02;;;;;;;5.43;2.75;;;10.30;72.80;;;;;;5041396;28;20101;-67
2023/03/20 07:07:28;;;;;;;9.23;3.50;;;10.30;73.00;;;;;;5016826;28;20414;-69
2023/03/20 07:09:53;;;;;;;4.85;3.00;;;10.30;73.20;;;;;;5039918;28;20086;-66
2023/03/20 07:12:19;;;;;;;9.80;3.67;;;10.30;73.20;;;;;;5019787;28;20124;-67
2023/03/20 07:14:45;;;;;;;5.35;3.33;;;10.30;73.10;;;;;;5013977;28;20041;-65
2023/03/20 07:17:12;;;;;;;5.35;3.22;;;10.30;73.20;;;;;;5029179;28;20586;-67
2023/03/20 07:19:38;;;;;;;5.72;3.38;;;10.20;73.20;;;;;;5010120;28;20064;-67
2023/03/20 07:22:07;;;;;;;4.95;2.40;;;10.20;73.20;;;;;;5038083;28;20483;-68
2023/03/20 07:24:33;;;;;;;7.63;2.85;;;10.20;73.20;;;;;;5013815;28;20079;-67
2023/03/20 07:27:00;;;;;;;4.05;2.58;;;10.30;73.40;;;;;;5033914;28;20028;-67
2023/03/20 07:29:25;;;;;;;6.38;2.95;;;10.30;73.30;;;;;;5036930;28;20033;-67
2023/03/20 07:31:51;;;;;;;6.57;3.28;;;10.30;73.10;;;;;;5029973;28;20088;-67
2023/03/20 07:34:17;;;;;;;7.75;3.78;;;10.30;73.20;;;;;;5033536;28;20022;-67
2023/03/20 07:36:43;;;;;;;6.75;3.92;;;10.20;73.30;;;;;;5027028;28;20046;-67
2023/03/20 07:39:12;;;;;;;5.78;2.92;;;10.20;73.40;;;;;;5034888;28;20037;-67
2023/03/20 07:41:37;;;;;;;6.00;3.20;;;10.20;73.30;;;;;;5033557;28;20083;-67
2023/03/20 07:44:03;;;;;;;4.70;3.38;;;10.20;73.40;;;;;;5010288;28;20041;-68
2023/03/20 07:46:28;;;;;;;6.90;3.55;;;10.30;73.30;;;;;;5037709;28;20423;-68
2023/03/20 07:48:56;;;;;;;5.60;2.75;;;10.30;73.30;;;;;;5036425;28;20040;-67
2023/03/20 07:51:23;;;;;;;6.78;2.80;;;10.20;73.40;;;;;;5018711;28;20025;-66
2023/03/20 07:53:48;;;;;;;6.38;3.28;;;10.20;73.40;;;;;;5030742;28;20104;-68
2023/03/20 07:56:14;;;;;;;7.28;3.17;;;10.20;73.40;;;;;;5037022;28;20121;-67
2023/03/20 07:58:40;;;;;;;7.05;3.30;;;10.30;73.40;;;;;;5008982;28;20108;-67
2023/03/20 08:01:06;;;;;;;5.25;2.65;;;10.40;73.30;;;;;;5020002;28;20084;-66
2023/03/20 08:03:32;;;;;;;10.32;2.97;;;10.40;73.10;;;;;;5012468;28;20129;-67
2023/03/20 08:05:58;;;;;;;6.28;3.08;;;10.50;73.10;;;;;;5024464;28;20037;-67
2023/03/20 08:08:24;;;;;;;10.95;2.80;;;10.50;72.80;;;;;;5019797;28;21405;-67
2023/03/20 08:10:50;;;;;;;7.25;3.00;;;10.50;72.80;;;;;;5024852;28;20048;-67
2023/03/20 08:13:16;;;;;;;8.70;3.72;;;10.40;72.50;;;;;;5026045;28;20083;-68
2023/03/20 08:15:41;;;;;;;12.68;2.97;;;10.40;72.70;;;;;;5023589;28;20030;-69
2023/03/20 08:18:07;;;;;;;8.05;3.35;;;10.40;72.80;;;;;;5023496;28;20473;-70
2023/03/20 08:20:33;;;;;;;5.38;2.92;;;10.40;72.70;;;;;;5004286;28;20469;-68
2023/03/20 08:22:58;;;;;;;6.18;3.10;;;10.40;72.70;;;;;;5021458;28;20034;-67
2023/03/20 08:25:24;;;;;;;7.00;2.38;;;10.40;72.70;;;;;;5020914;28;20048;-68
2023/03/20 08:27:50;;;;;;;4.78;2.55;;;10.40;73.20;;;;;;5021511;28;20030;-69
2023/03/20 08:30:15;;;;;;;6.15;3.10;;;10.40;73.10;;;;;;5027092;28;20033;-68
2023/03/20 08:32:41;;;;;;;6.97;2.80;;;10.40;72.40;;;;;;5021039;28;20073;-72
2023/03/20 08:35:08;;;;;;;5.45;3.05;;;10.40;72.30;;;;;;5017372;28;20021;-67
2023/03/20 08:37:36;;;;;;;3.55;2.15;;;10.30;72.30;;;;;;5003761;28;20042;-68
2023/03/20 08:40:02;;;;;;;6.45;2.75;;;10.30;72.50;;;;;;5031327;28;20029;-68
2023/03/20 08:42:28;;;;;;;11.23;2.28;;;10.40;72.40;;;;;;5026910;28;20029;-69
2023/03/20 08:44:54;;;;;;;5.97;3.15;;;10.40;72.30;;;;;;5028345;28;20034;-68
2023/03/20 08:47:20;;;;;;;4.95;2.85;;;10.40;72.10;;;;;;5017884;28;20029;-67
2023/03/20 08:49:45;;;;;;;5.88;3.25;;;10.50;72.10;;;;;;5006335;28;20037;-67
2023/03/20 08:52:11;;;;;;;5.30;2.38;;;10.50;71.90;;;;;;5015479;28;20231;-67
2023/03/20 08:54:37;;;;;;;5.57;3.05;;;10.60;71.90;;;;;;4996181;28;20026;-67
2023/03/20 08:57:03;;;;;;;3.88;2.42;;;10.50;71.50;;;;;;5022665;28;20128;-69
2023/03/20 08:59:30;;;;;;;6.40;2.63;;;10.50;71.70;;;;;;5015276;28;20089;-69
2023/03/20 09:01:55;;;;;;;4.47;2.40;;;10.50;71.70;;;;;;5025131;28;20017;-68
2023/03/20 09:04:21;;;;;;;6.55;2.90;;;10.60;71.60;;;;;;5031166;28;20500;-67
2023/03/20 09:06:48;;;;;;;9.73;3.30;;;10.60;71.40;;;;;;5024948;28;20531;-68
2023/03/20 09:09:17;;;;;;;6.95;2.45;;;10.50;71.10;;;;;;5006972;28;20192;-68
2023/03/20 09:11:43;;;;;;;5.45;2.65;;;10.50;71.40;;;;;;5006634;28;20087;-68
2023/03/20 09:14:08;;;;;;;4.25;2.22;;;10.60;71.40;;;;;;5020594;28;20044;-67
2023/03/20 09:16:34;;;;;;;6.60;2.28;;;10.70;71.10;;;;;;5006612;28;20036;-66
2023/03/20 09:19:00;;;;;;;4.15;2.80;;;10.70;70.90;;;;;;5015952;28;20029;-67
2023/03/20 09:21:26;;;;;;;5.43;3.08;;;10.70;70.70;;;;;;5026791;28;20518;-68
2023/03/20 09:23:52;;;;;;;8.15;3.47;;;10.70;70.50;;;;;;5021243;28;20013;-67
2023/03/20 09:26:17;;;;;;;3.85;2.92;;;10.80;70.40;;;;;;5004019;28;20048;-67
2023/03/20 09:28:43;;;;;;;4.10;2.55;;;10.80;70.30;;;;;;5022812;28;20396;-66
2023/03/20 09:31:09;;;;;;;3.53;2.05;;;10.80;70.10;;;;;;5017980;28;20105;-68
2023/03/20 09:33:34;;;;;;;3.47;1.73;;;10.80;69.90;;;;;;5003613;28;20566;-68
2023/03/20 09:36:00;;;;;;;3.42;1.65;;;10.90;69.70;;;;;;5024187;28;20053;-67
2023/03/20 09:38:26;;;;;;;3.97;2.22;;;11.00;70.10;;;;;;5008030;28;20443;-67
2023/03/20 09:40:58;;;;;;;3.00;1.60;;;11.10;69.40;;;;;;5024588;28;20034;-68
2023/03/20 09:43:53;;;;;;;3.22;2.08;;;11.10;68.60;;;;;;5007285;28;20061;-69
2023/03/20 09:46:26;;;;;;;5.38;1.75;;;11.20;68.60;;;;;;4990245;28;20032;-68
2023/03/20 09:49:14;;;;;;;4.05;2.60;;;11.20;68.00;;;;;;5023392;28;20057;-68
2023/03/20 09:51:45;;;;;;;4.47;2.25;;;11.10;68.00;;;;;;5002505;28;20029;-67
2023/03/20 09:54:36;;;;;;;3.35;1.65;;;11.10;68.10;;;;;;5006568;28;20045;-67
2023/03/20 09:57:03;;;;;;;4.72;2.00;;;11.10;68.20;;;;;;5025132;28;20054;-69
2023/03/20 09:59:33;;;;;;;2.60;2.03;;;11.10;68.00;;;;;;5026225;28;20289;-68
2023/03/20 10:02:05;;;;;;;6.57;1.80;;;11.10;68.10;;;;;;5022747;28;20556;-68
2023/03/20 10:04:32;;;;;;;2.65;1.73;;;11.20;68.30;;;;;;5036512;28;20096;-68
2023/03/20 10:06:58;;;;;;;3.53;1.70;;;11.20;68.40;;;;;;5025590;28;20413;-66
2023/03/20 10:09:26;;;;;;;3.45;2.22;;;11.20;68.50;;;;;;5002737;28;20018;-66
2023/03/20 10:12:07;;;;;;;2.72;1.88;;;11.20;69.00;;;;;;5021229;28;20458;-67
2023/03/20 10:15:03;;;;;;;5.00;1.40;;;11.10;69.50;;;;;;5025246;28;20021;-67
2023/03/20 10:17:57;;;;;;;5.35;2.38;;;11.10;70.20;;;;;;5024858;28;20446;-68
2023/03/20 10:20:39;;;;;;;5.10;2.05;;;10.90;71.10;;;;;;5027124;28;20021;-68
2023/03/20 10:23:32;;;;;;;3.65;2.58;;;10.90;71.60;;;;;;5016578;28;20495;-68
2023/03/20 10:26:20;;;;;;;7.65;2.95;;;11.00;72.20;;;;;;5025771;28;20017;-68
2023/03/20 10:29:01;;;;;;;3.70;2.42;;;11.00;72.50;;;;;;5018019;28;20061;-67
2023/03/20 10:31:59;;;;;;;4.97;2.42;;;11.10;72.50;;;;;;5022428;28;20121;-68
2023/03/20 10:34:49;;;;;;;4.75;2.22;;;11.30;72.60;;;;;;5022409;28;20025;-68
2023/03/20 10:37:40;;;;;;;3.78;2.30;;;11.40;72.30;;;;;;5023439;28;20083;-68
2023/03/20 10:40:25;;;;;;;3.90;1.83;;;11.40;72.10;;;;;;5019515;28;20057;-67
2023/03/20 10:42:53;;;;;;;3.63;1.65;;;11.40;71.80;;;;;;5019089;28;20025;-69
2023/03/20 10:45:32;;;;;;;2.67;2.15;;;11.30;71.60;;;;;;5019692;28;20389;-68
2023/03/20 10:48:01;;;;;;;4.72;2.50;;;11.40;71.70;;;;;;5018060;28;20021;-68
2023/03/20 10:50:43;;;;;;;3.35;1.70;;;11.20;71.30;;;;;;5023668;28;20402;-67
2023/03/20 10:53:19;;;;;;;3.63;1.65;;;11.20;71.60;;;;;;5004439;28;20081;-70
2023/03/20 10:55:45;;;;;;;4.28;1.77;;;11.20;71.60;;;;;;5023592;28;20056;-72
2023/03/20 10:58:34;;;;;;;5.40;2.05;;;11.20;71.90;;;;;;5006778;28;20049;-69
2023/03/20 11:01:01;;;;;;;4.55;1.35;;;11.30;71.60;;;;;;5016604;28;20036;-70
2023/03/20 11:03:30;;;;;;;5.90;2.10;;;11.30;71.40;;;;;;5000950;28;20065;-73
2023/03/20 11:06:04;;;;;;;2.67;1.90;;;11.40;71.10;;;;;;5000153;28;20547;-68
2023/03/20 11:08:35;;;;;;;2.75;1.55;;;11.40;71.00;;;;;;5025630;28;20060;-68
2023/03/20 11:11:03;;;;;;;2.03;1.40;;;11.40;71.10;;;;;;5005042;28;20029;-67
2023/03/20 11:13:34;;;;;;;3.28;1.23;;;11.50;70.40;;;;;;4983567;28;20444;-68
2023/03/20 11:16:23;;;;;;;4.13;1.48;;;11.50;70.30;;;;;;5021678;28;20037;-69
2023/03/20 11:18:51;;;;;;;2.58;1.30;;;11.40;69.90;;;;;;5024442;28;20026;-68
2023/03/20 11:21:44;;;;;;;1.75;1.20;;;11.40;70.40;;;;;;5021019;28;20034;-68
2023/03/20 11:24:43;;;;;;;2.45;1.42;;;11.40;70.80;;;;;;5016149;28;20026;-67
2023/03/20 11:27:13;;;;;;;4.15;1.25;;;11.40;70.50;;;;;;4999220;28;20036;-68
2023/03/20 11:29:41;;;;;;;1.75;1.27;;;11.30;70.70;;;;;;5020671;28;20056;-68
2023/03/20 11:32:21;;;;;;;1.65;1.20;;;11.40;70.80;;;;;;5023394;28;20037;-67
2023/03/20 11:34:46;;;;;;;3.20;1.45;;;11.40;70.50;;;;;;5020479;28;20029;-68
2023/03/20 11:37:25;;;;;;;2.45;1.58;;;11.40;70.80;;;;;;5027872;28;20116;-68
2023/03/20 11:40:21;;;;;;;2.17;1.65;;;11.40;71.00;;;;;;5018634;28;20048;-67
2023/03/20 11:42:54;;;;;;;4.57;1.95;;;11.40;70.70;;;;;;5022993;28;20037;-68
2023/03/20 11:45:20;;;;;;;7.38;1.38;;;11.40;71.10;;;;;;5004661;28;20021;-69
2023/03/20 11:47:51;;;;;;;4.43;1.58;;;11.50;71.20;;;;;;5005953;28;20041;-68
2023/03/20 11:50:45;;;;;;;4.18;1.13;;;11.60;71.30;;;;;;5024552;28;20468;-68
2023/03/20 11:53:38;;;;;;;4.28;1.83;;;11.70;71.30;;;;;;4995264;28;20045;-69
2023/03/20 11:56:24;;;;;;;2.05;1.40;;;11.80;70.70;;;;;;5024966;28;20400;-68
2023/03/20 11:59:05;;;;;;;3.55;1.65;;;11.80;70.50;;;;;;5016381;28;20034;-68
2023/03/20 12:01:47;;;;;;;5.80;2.13;;;11.80;70.20;;;;;;5016942;28;20025;-68
2023/03/20 12:04:21;;;;;;;2.08;1.58;;;11.80;69.30;;;;;;5021606;28;20041;-68
2023/03/20 12:07:11;;;;;;;3.58;1.58;;;11.60;69.50;;;;;;5020397;28;20070;-66
2023/03/20 12:09:53;;;;;;;4.18;1.20;;;11.60;70.00;;;;;;4998514;28;20030;-68
2023/03/20 12:12:34;;;;;;;4.50;1.53;;;11.70;70.00;;;;;;5019696;28;20013;-68
2023/03/20 12:15:03;;;;;;;8.40;1.70;;;11.70;69.60;;;;;;5002111;28;20029;-69
2023/03/20 12:17:51;;;;;;;3.47;1.25;;;11.70;69.50;;;;;;4995772;28;20031;-68
2023/03/20 12:20:57;;;;;;;3.40;1.20;;;11.70;69.50;;;;;;5021416;28;20040;-67
2023/03/20 12:23:34;;;;;;;3.92;1.67;;;11.70;69.50;;;;;;4979151;28;20134;-68
2023/03/20 12:26:23;;;;;;;6.15;1.95;;;11.50;70.00;;;;;;5007239;28;20041;-67
2023/03/20 12:29:01;;;;;;;3.50;2.00;;;11.60;70.50;;;;;;5003299;28;20037;-68
2023/03/20 12:31:49;;;;;;;2.65;1.42;;;11.70;70.90;;;;;;5017865;28;20022;-68
2023/03/20 12:34:18;;;;;;;4.60;1.92;;;11.70;70.50;;;;;;5003312;28;20037;-68
2023/03/20 12:36:51;;;;;;;2.88;1.58;;;11.70;70.90;;;;;;5016040;28;20053;-69
2023/03/20 12:39:24;;;;;;;4.53;1.75;;;11.70;71.30;;;;;;5020630;28;20026;-69
2023/03/20 12:41:58;;;;;;;1.65;1.38;;;11.70;71.20;;;;;;5021444;28;20432;-67
2023/03/20 12:45:02;;;;;;;8.30;2.10;;;11.80;71.20;;;;;;5015488;28;20051;-68
2023/03/20 12:47:31;;;;;;;2.70;1.83;;;11.80;71.10;;;;;;5021880;28;20026;-66
2023/03/20 12:50:03;;;;;;;13.55;2.05;;;11.80;71.70;;;;;;5000635;28;20025;-67
2023/03/20 12:52:32;;;;;;;4.20;2.45;;;11.70;71.20;;;;;;5023861;28;20061;-67
2023/03/20 12:55:28;;;;;;;3.17;2.10;;;11.70;72.00;;;;;;5023299;28;20485;-68
2023/03/20 12:58:03;;;;;;;4.97;2.75;;;11.70;72.10;;;;;;5002648;28;20029;-67
2023/03/20 13:00:34;;;;;;;4.65;2.38;;;11.60;72.40;;;;;;5022570;28;20480;-67
2023/03/20 13:03:18;;;;;;;5.82;2.40;;;11.60;72.60;;;;;;5024433;28;20443;-68
2023/03/20 13:06:04;;;;;;;2.70;1.77;;;11.60;72.90;;;;;;5021695;28;20029;-68
2023/03/20 13:08:56;;;;;;;5.57;2.60;;;11.70;73.10;;;;;;5016583;28;20401;-69